Time;durP1;ratioP1;P1;durP2;ratioP2;P2;SDS_P1;SDS_P2;PMS_P1;PMS_P2;Temp;Humidity;BMP_temperature;BMP_pressure;BME280_temperature;BME280_humidity;BME280_pressure;Samples;Min_cycle;Max_cycle;Signal;HPM_P1;HPM_P2
2022/12/07 00:01:43;;;;;;;6.63;3.97;;;7.30;99.90;;;;;;7394995;19;20134;-82
2022/12/07 00:04:15;;;;;;;4.23;3.40;;;7.30;99.90;;;;;;7396035;19;20151;-80
2022/12/07 00:06:50;;;;;;;7.87;3.67;;;7.30;99.90;;;;;;7394894;19;20143;-82
2022/12/07 00:09:17;;;;;;;6.47;4.13;;;7.40;99.90;;;;;;7395383;19;20169;-81
2022/12/07 00:11:43;;;;;;;5.47;3.90;;;7.50;99.90;;;;;;7394874;19;20568;-81
2022/12/07 00:14:14;;;;;;;5.67;3.67;;;7.50;99.90;;;;;;7395790;19;20139;-81
2022/12/07 00:16:40;;;;;;;5.03;3.90;;;7.40;99.90;;;;;;7397034;19;20142;-80
2022/12/07 00:19:06;;;;;;;5.00;4.10;;;7.40;99.90;;;;;;7393246;19;20130;-81
2022/12/07 00:21:36;;;;;;;5.77;4.13;;;7.40;99.90;;;;;;7394575;19;20134;-81
2022/12/07 00:24:03;;;;;;;6.67;4.37;;;7.30;99.90;;;;;;7395753;19;20138;-81
2022/12/07 00:26:32;;;;;;;6.93;3.93;;;7.40;99.90;;;;;;7395034;19;20138;-82
2022/12/07 00:29:04;;;;;;;7.87;4.03;;;7.40;99.90;;;;;;7394733;19;20138;-81
2022/12/07 00:31:38;;;;;;;6.37;4.73;;;7.30;99.90;;;;;;7393205;19;20147;-80
2022/12/07 00:34:06;;;;;;;5.90;4.13;;;7.40;99.90;;;;;;7392202;19;20156;-80
2022/12/07 00:36:32;;;;;;;6.43;4.40;;;7.20;99.90;;;;;;7393345;19;20148;-80
2022/12/07 00:39:00;;;;;;;6.03;4.30;;;7.20;99.90;;;;;;7394814;19;20137;-81
2022/12/07 00:41:28;;;;;;;6.03;4.53;;;7.20;99.90;;;;;;7394468;19;20150;-82
2022/12/07 00:43:55;;;;;;;6.23;4.63;;;7.40;99.90;;;;;;7393064;19;20540;-83
2022/12/07 00:46:22;;;;;;;5.93;4.30;;;7.20;99.90;;;;;;7394007;19;20135;-82
2022/12/07 00:48:52;;;;;;;6.73;4.47;;;7.10;99.90;;;;;;7396240;19;20127;-80
2022/12/07 00:51:20;;;;;;;4.93;4.33;;;7.20;99.90;;;;;;7394881;19;20130;-81
2022/12/07 00:53:46;;;;;;;5.77;4.23;;;7.40;99.90;;;;;;7396116;19;20457;-80
2022/12/07 00:56:19;;;;;;;7.37;4.60;;;7.40;99.90;;;;;;7393245;19;20967;-81
2022/12/07 00:59:13;;;;;;;10.43;5.23;;;7.40;99.90;;;;;;7394927;19;20138;-87
2022/12/07 01:01:39;;;;;;;5.83;4.73;;;7.40;99.90;;;;;;7392937;19;20175;-80
2022/12/07 01:04:05;;;;;;;5.67;4.23;;;7.50;99.90;;;;;;7393045;19;20154;-81
2022/12/07 01:06:31;;;;;;;6.50;4.93;;;7.30;99.90;;;;;;7389179;19;20137;-81
2022/12/07 01:09:00;;;;;;;7.50;4.93;;;7.30;99.90;;;;;;7400735;19;20150;-81
2022/12/07 01:11:28;;;;;;;6.47;5.03;;;7.30;99.90;;;;;;7401495;19;20213;-81
2022/12/07 01:13:57;;;;;;;7.50;5.53;;;7.30;99.90;;;;;;7401001;19;20158;-82
2022/12/07 01:16:24;;;;;;;7.73;5.77;;;7.40;99.90;;;;;;7401538;19;20142;-81
2022/12/07 01:18:53;;;;;;;6.93;5.03;;;7.40;99.90;;;;;;7402773;19;20131;-82
2022/12/07 01:21:24;;;;;;;7.47;5.40;;;7.40;99.90;;;;;;7402458;19;20480;-81
2022/12/07 01:23:51;;;;;;;8.43;5.47;;;7.30;99.90;;;;;;7399553;19;20142;-82
2022/12/07 01:26:23;;;;;;;8.77;5.63;;;7.30;99.90;;;;;;7401660;19;20142;-81
2022/12/07 01:28:49;;;;;;;8.10;5.07;;;7.30;99.90;;;;;;7402758;19;20128;-80
2022/12/07 01:31:19;;;;;;;8.37;5.20;;;7.20;99.90;;;;;;7401752;19;20825;-82
2022/12/07 01:33:47;;;;;;;7.27;5.37;;;7.30;99.90;;;;;;7399769;19;20131;-81
2022/12/07 01:36:18;;;;;;;8.40;5.40;;;7.20;99.90;;;;;;7401371;19;20210;-82
2022/12/07 01:38:45;;;;;;;8.57;5.83;;;7.30;99.90;;;;;;7400026;19;20122;-82
2022/12/07 01:41:13;;;;;;;7.07;5.73;;;7.20;99.90;;;;;;7401104;19;20146;-83
2022/12/07 01:44:15;;;;;;;8.77;5.63;;;7.20;99.90;;;;;;7400847;19;20162;-80
2022/12/07 01:46:51;;;;;;;8.37;5.80;;;7.10;99.90;;;;;;7401068;19;20153;-82
2022/12/07 01:49:28;;;;;;;7.13;5.20;;;7.20;99.90;;;;;;7398967;19;20143;-81
2022/12/07 01:52:14;;;;;;;6.20;4.30;;;7.30;99.90;;;;;;7398215;19;20169;-80
2022/12/07 01:54:41;;;;;;;8.13;5.63;;;7.30;99.90;;;;;;7401395;19;20185;-81
2022/12/07 01:57:08;;;;;;;8.23;5.00;;;7.30;99.90;;;;;;7398449;19;20131;-81
2022/12/07 01:59:35;;;;;;;9.60;4.87;;;7.30;99.90;;;;;;7400989;19;20202;-79
2022/12/07 02:02:03;;;;;;;5.60;4.27;;;7.20;99.90;;;;;;7399038;19;20590;-80
2022/12/07 02:04:29;;;;;;;8.60;4.80;;;7.20;99.90;;;;;;7398168;19;20843;-80
2022/12/07 02:06:57;;;;;;;9.13;5.27;;;7.20;99.90;;;;;;7399981;19;20870;-81
2022/12/07 02:09:23;;;;;;;5.93;4.53;;;7.20;99.90;;;;;;7398758;19;20463;-81
2022/12/07 02:11:52;;;;;;;6.40;4.70;;;7.20;99.90;;;;;;7397704;19;20137;-81
2022/12/07 02:14:18;;;;;;;6.70;4.80;;;7.30;99.90;;;;;;7397588;19;20152;-82
2022/12/07 02:16:57;;;;;;;8.70;5.40;;;7.20;99.90;;;;;;7400456;19;20556;-82
2022/12/07 02:19:32;;;;;;;6.70;4.73;;;7.20;99.90;;;;;;7399804;19;20137;-81
2022/12/07 02:22:35;;;;;;;10.67;6.50;;;7.20;99.90;;;;;;7399499;19;20172;-82
2022/12/07 02:25:21;;;;;;;6.37;4.93;;;7.20;99.90;;;;;;7399970;19;20225;-82
2022/12/07 02:27:56;;;;;;;9.10;6.00;;;7.10;99.90;;;;;;7398845;19;20140;-82
2022/12/07 02:30:28;;;;;;;6.20;4.50;;;7.10;99.90;;;;;;7397931;19;20571;-80
2022/12/07 02:33:07;;;;;;;8.50;5.03;;;7.10;99.90;;;;;;7397489;19;20567;-82
2022/12/07 02:36:01;;;;;;;7.83;4.80;;;7.10;99.90;;;;;;7398229;19;20139;-82
2022/12/07 02:38:36;;;;;;;7.80;5.57;;;7.20;99.90;;;;;;7399431;19;20134;-82
2022/12/07 02:41:33;;;;;;;7.67;5.20;;;7.20;99.90;;;;;;7396555;19;20131;-83
2022/12/07 02:44:03;;;;;;;7.10;5.07;;;7.20;99.90;;;;;;7398482;19;20142;-82
2022/12/07 02:46:40;;;;;;;8.73;4.93;;;7.20;99.90;;;;;;7397767;19;20495;-82
2022/12/07 02:49:07;;;;;;;7.50;5.07;;;7.10;99.90;;;;;;7398891;19;20149;-82
2022/12/07 02:51:38;;;;;;;7.90;5.37;;;7.10;99.90;;;;;;7399473;19;20139;-82
2022/12/07 02:54:14;;;;;;;7.30;4.93;;;7.20;99.90;;;;;;7398960;19;20163;-80
2022/12/07 02:56:50;;;;;;;6.57;4.93;;;7.30;99.90;;;;;;7396636;19;20906;-80
2022/12/07 02:59:22;;;;;;;7.40;5.20;;;7.20;99.90;;;;;;7398123;19;20222;-82
2022/12/07 03:02:18;;;;;;;8.43;5.13;;;7.20;99.90;;;;;;7397350;19;20856;-81
2022/12/07 03:04:49;;;;;;;7.53;5.07;;;7.10;99.90;;;;;;7398770;19;20514;-81
2022/12/07 03:07:30;;;;;;;7.13;5.23;;;7.20;99.90;;;;;;7397463;19;20785;-81
2022/12/07 03:10:33;;;;;;;7.40;4.80;;;7.10;99.90;;;;;;7399792;19;20524;-80
2022/12/07 03:13:14;;;;;;;7.30;5.00;;;7.20;99.90;;;;;;7395660;19;20173;-81
2022/12/07 03:15:52;;;;;;;6.80;5.23;;;7.20;99.90;;;;;;7398055;19;20142;-82
2022/12/07 03:18:22;;;;;;;7.37;5.10;;;7.10;99.90;;;;;;7395413;19;20618;-81
2022/12/07 03:20:52;;;;;;;7.87;5.10;;;6.80;99.90;;;;;;7395766;19;20139;-82
2022/12/07 03:23:19;;;;;;;6.37;4.90;;;7.00;99.90;;;;;;7396908;19;20146;-81
2022/12/07 03:25:53;;;;;;;6.17;4.90;;;7.00;99.90;;;;;;7397042;19;20157;-81
2022/12/07 03:28:22;;;;;;;6.37;4.50;;;7.20;99.90;;;;;;7396115;19;20170;-80
2022/12/07 03:30:57;;;;;;;6.70;4.73;;;7.20;99.90;;;;;;7395695;19;20164;-83
2022/12/07 03:33:31;;;;;;;8.57;5.00;;;7.30;99.90;;;;;;7395445;19;20145;-81
2022/12/07 03:36:06;;;;;;;6.83;4.67;;;7.30;99.90;;;;;;7397132;19;20131;-81
2022/12/07 03:38:45;;;;;;;7.80;5.03;;;7.30;99.90;;;;;;7394057;19;20177;-82
2022/12/07 03:41:24;;;;;;;6.77;4.40;;;7.00;99.90;;;;;;7394963;19;20142;-81
2022/12/07 03:43:50;;;;;;;7.63;5.10;;;7.10;99.90;;;;;;7393354;19;20142;-81
2022/12/07 03:46:19;;;;;;;6.37;4.27;;;7.00;99.90;;;;;;7394774;19;20511;-81
2022/12/07 03:48:56;;;;;;;6.40;4.63;;;7.00;99.90;;;;;;7394233;19;20148;-81
2022/12/07 03:51:28;;;;;;;7.03;4.80;;;7.10;99.90;;;;;;7392748;19;20157;-81
2022/12/07 03:54:29;;;;;;;7.20;5.10;;;7.20;99.90;;;;;;7391646;19;20142;-81
2022/12/07 03:56:57;;;;;;;7.93;5.43;;;7.20;99.90;;;;;;7388563;19;20161;-81
2022/12/07 03:59:24;;;;;;;6.83;5.00;;;7.10;99.90;;;;;;7390890;19;20626;-81
2022/12/07 04:01:55;;;;;;;7.60;4.70;;;7.20;99.90;;;;;;7392087;19;20229;-80
2022/12/07 04:04:23;;;;;;;7.37;4.60;;;7.00;99.90;;;;;;7390727;19;20126;-80
2022/12/07 04:06:49;;;;;;;5.67;4.63;;;6.90;99.90;;;;;;7391396;19;20599;-80
2022/12/07 04:09:15;;;;;;;6.20;4.63;;;7.10;99.90;;;;;;7396078;19;20141;-80
2022/12/07 04:11:41;;;;;;;7.53;5.13;;;7.10;99.90;;;;;;7389800;19;20985;-81
2022/12/07 04:14:18;;;;;;;6.43;4.70;;;7.20;99.90;;;;;;7390550;19;20154;-81
2022/12/07 04:16:49;;;;;;;7.00;4.50;;;7.20;99.90;;;;;;7391077;19;20134;-81
2022/12/07 04:19:16;;;;;;;6.57;4.90;;;7.30;99.90;;;;;;7390781;19;20154;-80
2022/12/07 04:21:42;;;;;;;8.30;4.63;;;7.30;99.90;;;;;;7389216;19;20150;-82
2022/12/07 04:24:08;;;;;;;6.77;4.80;;;7.20;99.90;;;;;;7389918;19;20666;-81
2022/12/07 04:26:34;;;;;;;6.97;4.80;;;7.10;99.90;;;;;;7389129;19;20139;-80
2022/12/07 04:29:00;;;;;;;6.40;4.60;;;6.80;99.90;;;;;;7388722;19;20146;-81
2022/12/07 04:31:25;;;;;;;7.53;4.60;;;6.50;99.90;;;;;;7388244;19;21056;-81
2022/12/07 04:33:51;;;;;;;5.13;4.17;;;6.50;99.90;;;;;;7391555;19;20583;-81
2022/12/07 04:36:19;;;;;;;5.53;3.90;;;6.00;99.90;;;;;;7389600;19;20176;-81
2022/12/07 04:38:46;;;;;;;7.57;4.70;;;6.40;99.90;;;;;;7392508;19;20142;-81
2022/12/07 04:41:12;;;;;;;6.50;4.53;;;6.70;99.90;;;;;;7388167;19;20192;-82
2022/12/07 04:43:38;;;;;;;8.37;4.97;;;6.70;99.90;;;;;;7389589;19;20213;-81
2022/12/07 04:46:04;;;;;;;5.63;4.40;;;6.60;99.90;;;;;;7387636;19;20159;-81
2022/12/07 04:48:30;;;;;;;7.53;5.60;;;6.30;99.90;;;;;;7389679;19;20623;-81
2022/12/07 04:50:56;;;;;;;7.20;4.63;;;6.30;99.90;;;;;;7388311;19;20154;-81
2022/12/07 04:53:22;;;;;;;7.00;5.10;;;6.40;99.90;;;;;;7387948;19;20142;-81
2022/12/07 04:55:47;;;;;;;5.30;4.00;;;6.10;99.90;;;;;;7386404;19;20150;-81
2022/12/07 04:58:14;;;;;;;5.93;4.03;;;6.10;99.90;;;;;;7388719;19;20131;-80
2022/12/07 05:00:40;;;;;;;5.40;3.83;;;6.20;99.90;;;;;;7389665;19;20823;-81
2022/12/07 05:03:06;;;;;;;4.90;3.87;;;6.40;99.90;;;;;;7388930;19;20131;-80
2022/12/07 05:05:32;;;;;;;5.27;3.50;;;6.40;99.90;;;;;;7391897;19;20697;-82
2022/12/07 05:07:58;;;;;;;5.47;3.77;;;6.50;99.90;;;;;;7395088;19;20149;-81
2022/12/07 05:10:23;;;;;;;5.30;3.77;;;6.80;99.90;;;;;;7386710;19;20210;-80
2022/12/07 05:12:49;;;;;;;4.97;3.70;;;7.00;99.90;;;;;;7385118;19;20135;-80
2022/12/07 05:15:15;;;;;;;4.50;3.70;;;7.10;99.90;;;;;;7385967;19;20134;-80
2022/12/07 05:17:41;;;;;;;5.17;4.10;;;7.20;99.90;;;;;;7388212;19;20146;-81
2022/12/07 05:20:08;;;;;;;5.33;4.03;;;7.10;99.90;;;;;;7384731;19;21027;-82
2022/12/07 05:22:34;;;;;;;3.90;3.37;;;7.10;99.90;;;;;;7388358;19;20514;-81
2022/12/07 05:25:00;;;;;;;5.77;3.77;;;7.10;99.90;;;;;;7387898;19;20170;-81
2022/12/07 05:27:26;;;;;;;5.07;3.53;;;7.20;99.90;;;;;;7388157;19;20206;-81
2022/12/07 05:29:52;;;;;;;4.80;3.60;;;7.10;99.90;;;;;;7385812;19;20704;-82
2022/12/07 05:32:17;;;;;;;5.00;3.97;;;7.10;99.90;;;;;;7390108;19;20155;-81
2022/12/07 05:34:43;;;;;;;4.53;3.70;;;7.00;99.90;;;;;;7397954;19;20251;-81
2022/12/07 05:37:09;;;;;;;5.00;3.80;;;7.00;99.90;;;;;;7403487;19;20123;-80
2022/12/07 05:39:37;;;;;;;5.07;3.77;;;6.90;99.90;;;;;;7399104;19;20119;-82
2022/12/07 05:42:12;;;;;;;5.43;3.77;;;6.90;99.90;;;;;;7396719;19;20131;-81
2022/12/07 05:44:44;;;;;;;8.50;4.13;;;6.90;99.90;;;;;;7394967;19;20170;-82
2022/12/07 05:47:14;;;;;;;5.43;3.77;;;6.70;99.90;;;;;;7392117;19;20162;-82
2022/12/07 05:49:40;;;;;;;5.87;4.40;;;6.70;99.90;;;;;;7396913;19;20130;-83
2022/12/07 05:52:06;;;;;;;5.97;3.97;;;6.90;99.90;;;;;;7393264;19;20618;-82
2022/12/07 05:54:32;;;;;;;5.93;4.23;;;6.80;99.90;;;;;;7399381;19;20173;-82
2022/12/07 05:56:58;;;;;;;6.73;4.77;;;6.70;99.90;;;;;;7400617;19;20579;-80
2022/12/07 05:59:25;;;;;;;6.90;4.87;;;6.70;99.90;;;;;;7399030;19;20157;-82
2022/12/07 06:02:00;;;;;;;6.23;4.30;;;6.40;99.90;;;;;;7398927;19;20206;-82
2022/12/07 06:04:29;;;;;;;6.30;3.77;;;6.00;99.90;;;;;;7397834;19;20175;-82
2022/12/07 06:06:55;;;;;;;5.83;4.13;;;6.20;99.90;;;;;;7395557;19;20173;-82
2022/12/07 06:09:23;;;;;;;5.80;3.93;;;6.50;99.90;;;;;;7398086;19;20479;-81
2022/12/07 06:14:33;;;;;;;7.07;4.27;;;6.70;99.90;;;;;;7398489;19;20135;-81
2022/12/07 06:16:59;;;;;;;6.33;4.83;;;6.70;99.90;;;;;;7399874;19;20169;-81
2022/12/07 06:19:25;;;;;;;6.27;4.03;;;6.70;99.90;;;;;;7397305;19;20481;-80
2022/12/07 06:21:51;;;;;;;5.90;4.37;;;6.70;99.90;;;;;;7399073;19;20139;-82
2022/12/07 06:24:18;;;;;;;5.17;3.90;;;6.80;99.90;;;;;;7399047;19;20135;-81
2022/12/07 06:26:43;;;;;;;5.63;3.97;;;6.80;99.90;;;;;;7399268;19;20648;-81
2022/12/07 06:29:13;;;;;;;7.93;4.37;;;6.20;99.90;;;;;;7399638;19;20131;-82
2022/12/07 06:31:39;;;;;;;6.60;4.73;;;6.40;99.90;;;;;;7398416;19;20598;-82
2022/12/07 06:34:09;;;;;;;7.30;4.93;;;6.60;99.90;;;;;;7398050;19;20151;-83
2022/12/07 06:36:37;;;;;;;8.40;4.53;;;6.70;99.90;;;;;;7397062;19;20522;-81
2022/12/07 06:39:05;;;;;;;6.33;4.50;;;6.70;99.90;;;;;;7398193;19;20134;-82
2022/12/07 06:41:33;;;;;;;7.40;4.57;;;6.80;99.90;;;;;;7399341;19;20588;-83
2022/12/07 06:43:59;;;;;;;8.10;4.30;;;6.80;99.90;;;;;;7398169;19;20243;-81
2022/12/07 06:46:25;;;;;;;6.17;4.33;;;6.80;99.90;;;;;;7398134;19;20553;-82
2022/12/07 06:48:51;;;;;;;5.23;3.73;;;6.90;99.90;;;;;;7398577;19;20167;-81
2022/12/07 06:51:17;;;;;;;7.67;4.00;;;6.80;99.90;;;;;;7398183;19;20143;-81
2022/12/07 06:53:43;;;;;;;8.50;4.53;;;6.80;99.90;;;;;;7395999;19;20139;-82
2022/12/07 06:56:08;;;;;;;6.70;4.40;;;6.80;99.90;;;;;;7396496;19;20185;-82
2022/12/07 06:58:34;;;;;;;6.87;4.23;;;6.90;99.90;;;;;;7398054;19;20162;-83
2022/12/07 07:01:00;;;;;;;5.87;3.80;;;6.90;99.90;;;;;;7397674;19;20496;-80
2022/12/07 07:03:26;;;;;;;5.23;3.40;;;7.00;99.90;;;;;;7394699;19;20527;-83
2022/12/07 07:05:51;;;;;;;5.83;3.57;;;6.70;99.90;;;;;;7395920;19;20149;-81
2022/12/07 07:08:17;;;;;;;6.00;4.00;;;6.60;99.90;;;;;;7395391;19;20146;-82
2022/12/07 07:10:43;;;;;;;3.53;2.87;;;6.60;99.90;;;;;;7396055;19;20154;-81
2022/12/07 07:13:10;;;;;;;4.53;3.40;;;6.70;99.90;;;;;;7394486;19;20146;-82
2022/12/07 07:15:38;;;;;;;6.10;3.63;;;6.80;99.90;;;;;;7395898;19;20466;-82
2022/12/07 07:18:04;;;;;;;6.47;3.73;;;7.00;99.90;;;;;;7395089;19;20856;-82
2022/12/07 07:20:30;;;;;;;5.37;3.57;;;6.90;99.90;;;;;;7395549;19;20154;-81
2022/12/07 07:22:56;;;;;;;5.30;3.20;;;6.80;99.90;;;;;;7398808;19;20513;-81
2022/12/07 07:25:21;;;;;;;4.20;3.27;;;6.70;99.90;;;;;;7396719;19;20135;-82
2022/12/07 07:27:47;;;;;;;4.90;3.33;;;6.70;99.90;;;;;;7395463;19;20131;-81
2022/12/07 07:30:13;;;;;;;3.87;3.03;;;6.80;99.90;;;;;;7397384;19;20163;-82
2022/12/07 07:32:39;;;;;;;6.20;3.30;;;6.70;99.90;;;;;;7395023;19;20611;-81
2022/12/07 07:35:06;;;;;;;5.20;3.47;;;6.90;99.90;;;;;;7399742;19;20150;-84
2022/12/07 07:37:32;;;;;;;4.23;3.03;;;6.80;99.90;;;;;;7395087;19;20646;-83
2022/12/07 07:39:57;;;;;;;4.93;3.40;;;6.60;99.90;;;;;;7396438;19;20131;-80
2022/12/07 07:42:23;;;;;;;6.07;3.23;;;6.80;99.90;;;;;;7394029;19;20139;-86
2022/12/07 07:44:49;;;;;;;5.03;3.40;;;6.80;99.90;;;;;;7397561;19;20151;-83
2022/12/07 07:47:15;;;;;;;4.77;3.80;;;7.00;99.90;;;;;;7396052;19;20142;-84
2022/12/07 07:49:40;;;;;;;7.53;3.67;;;6.90;99.90;;;;;;7397812;19;20126;-84
2022/12/07 07:52:06;;;;;;;3.63;2.73;;;6.90;99.90;;;;;;7396977;19;20130;-82
2022/12/07 07:54:32;;;;;;;5.60;4.10;;;6.70;99.90;;;;;;7396170;19;20751;-83
2022/12/07 07:56:58;;;;;;;6.80;4.03;;;6.80;99.90;;;;;;7396602;19;20137;-84
2022/12/07 07:59:25;;;;;;;4.40;3.30;;;6.90;99.90;;;;;;7398873;19;20159;-84
2022/12/07 08:01:50;;;;;;;6.40;3.37;;;7.00;99.90;;;;;;7406108;19;20931;-83
2022/12/07 08:04:16;;;;;;;4.27;3.20;;;6.90;99.90;;;;;;7396611;19;20138;-84
2022/12/07 08:06:43;;;;;;;5.73;3.43;;;6.80;99.90;;;;;;7396075;19;20169;-83
2022/12/07 08:09:10;;;;;;;4.77;3.37;;;7.00;99.90;;;;;;7395186;19;20814;-84
2022/12/07 08:11:36;;;;;;;5.10;3.30;;;6.80;99.90;;;;;;7399340;19;20240;-84
2022/12/07 08:14:02;;;;;;;7.43;4.77;;;6.90;99.90;;;;;;7391376;19;20147;-83
2022/12/07 08:16:28;;;;;;;8.27;4.20;;;7.00;99.90;;;;;;7391486;19;20167;-84
2022/12/07 08:18:54;;;;;;;3.80;2.77;;;6.80;99.90;;;;;;7397979;19;20146;-85
2022/12/07 08:21:20;;;;;;;5.43;3.20;;;6.90;99.90;;;;;;7398585;19;20134;-87
2022/12/07 08:23:45;;;;;;;4.63;3.37;;;6.90;99.90;;;;;;7392985;19;20138;-83
2022/12/07 08:26:14;;;;;;;4.53;3.07;;;6.90;99.90;;;;;;7392591;19;20130;-83
2022/12/07 08:28:41;;;;;;;5.10;3.10;;;7.00;99.90;;;;;;7393117;19;20613;-83
2022/12/07 08:31:11;;;;;;;5.33;3.43;;;6.90;99.90;;;;;;7391044;19;20595;-83
2022/12/07 08:33:38;;;;;;;6.83;4.07;;;6.80;99.90;;;;;;7389911;19;20887;-82
2022/12/07 08:36:07;;;;;;;6.00;4.20;;;6.90;99.90;;;;;;7391688;19;20158;-85
2022/12/07 08:38:34;;;;;;;5.30;3.87;;;7.10;99.90;;;;;;7391730;19;20138;-84
2022/12/07 08:41:00;;;;;;;5.77;3.90;;;7.10;99.90;;;;;;7391665;19;20583;-84
2022/12/07 08:43:26;;;;;;;5.73;4.13;;;6.90;99.90;;;;;;7390757;19;20131;-86
2022/12/07 08:46:23;;;;;;;6.73;3.80;;;6.90;99.90;;;;;;7389976;19;21030;-85
2022/12/07 08:48:55;;;;;;;5.27;3.73;;;7.00;99.90;;;;;;7391664;19;20170;-84
2022/12/07 08:51:22;;;;;;;5.83;3.73;;;6.90;99.90;;;;;;7393212;19;20159;-86
2022/12/07 08:53:49;;;;;;;6.07;3.80;;;6.90;99.90;;;;;;7391525;19;20154;-83
2022/12/07 08:56:16;;;;;;;6.70;3.90;;;7.00;99.90;;;;;;7390945;19;20147;-85
2022/12/07 08:58:42;;;;;;;6.60;3.70;;;7.10;99.90;;;;;;7398518;19;20153;-85
2022/12/07 09:01:08;;;;;;;5.80;3.90;;;7.40;99.90;;;;;;7386796;19;20135;-85
2022/12/07 09:03:34;;;;;;;5.20;3.67;;;7.60;99.90;;;;;;7399811;19;20470;-85
2022/12/07 09:06:00;;;;;;;7.23;4.20;;;7.50;99.90;;;;;;7399852;19;20158;-84
2022/12/07 09:08:35;;;;;;;4.67;3.53;;;7.60;99.90;;;;;;7392950;19;20234;-84
2022/12/07 09:11:01;;;;;;;4.37;3.40;;;7.70;99.90;;;;;;7391792;19;20542;-83
2022/12/07 09:13:27;;;;;;;6.57;3.70;;;7.50;99.90;;;;;;7392605;19;20508;-84
2022/12/07 09:15:53;;;;;;;4.70;3.37;;;7.70;99.90;;;;;;7390369;19;20159;-83
2022/12/07 09:18:18;;;;;;;5.10;4.03;;;7.60;99.90;;;;;;7392428;19;20621;-84
2022/12/07 09:20:44;;;;;;;5.87;3.33;;;7.40;99.90;;;;;;7392690;19;20148;-83
2022/12/07 09:23:10;;;;;;;10.93;7.00;;;7.60;99.90;;;;;;7392707;19;20156;-80
2022/12/07 09:25:36;;;;;;;5.57;3.83;;;7.40;99.90;;;;;;7389947;19;20798;-82
2022/12/07 09:28:02;;;;;;;3.90;2.53;;;7.60;99.90;;;;;;7397414;19;20142;-81
2022/12/07 09:30:31;;;;;;;4.63;3.00;;;7.60;99.90;;;;;;7403004;19;20142;-83
2022/12/07 09:32:57;;;;;;;3.83;2.80;;;7.50;99.90;;;;;;7399260;19;20146;-81
2022/12/07 09:35:24;;;;;;;4.50;2.83;;;7.40;99.90;;;;;;7401794;19;20935;-81
2022/12/07 09:37:50;;;;;;;5.47;2.50;;;7.40;99.90;;;;;;7398452;19;20142;-80
2022/12/07 09:40:19;;;;;;;6.33;3.73;;;7.20;99.90;;;;;;7397085;19;20198;-83
2022/12/07 09:42:49;;;;;;;4.20;2.90;;;7.40;99.90;;;;;;7397545;19;20612;-79
2022/12/07 09:45:33;;;;;;;4.67;2.70;;;7.60;99.90;;;;;;7391520;19;20157;-80
2022/12/07 09:48:02;;;;;;;2.97;2.60;;;7.50;99.90;;;;;;7395323;19;20139;-83
2022/12/07 09:50:29;;;;;;;6.67;3.83;;;7.70;99.90;;;;;;7406719;19;20154;-83
2022/12/07 09:53:19;;;;;;;3.20;2.57;;;7.70;99.90;;;;;;7397537;19;20162;-81
2022/12/07 09:55:45;;;;;;;3.60;2.53;;;8.10;99.90;;;;;;7397607;19;20178;-81
2022/12/07 09:58:32;;;;;;;6.00;3.37;;;8.30;99.90;;;;;;7401145;19;20138;-79
2022/12/07 10:01:07;;;;;;;9.73;5.83;;;8.20;99.90;;;;;;7409681;19;20135;-82
2022/12/07 10:03:39;;;;;;;4.83;3.30;;;8.10;99.90;;;;;;7401718;19;20142;-81
2022/12/07 10:06:06;;;;;;;5.63;3.53;;;8.20;99.90;;;;;;7399015;19;20138;-82
2022/12/07 10:08:33;;;;;;;5.53;3.20;;;8.00;99.90;;;;;;7399917;19;20135;-83
2022/12/07 10:11:03;;;;;;;4.00;2.70;;;8.10;99.90;;;;;;7399446;19;20130;-82
2022/12/07 10:13:38;;;;;;;5.20;2.67;;;8.10;99.90;;;;;;7396397;19;20482;-82
2022/12/07 10:16:04;;;;;;;8.20;4.97;;;8.10;99.90;;;;;;7397749;19;20601;-84
2022/12/07 10:18:41;;;;;;;6.27;3.93;;;7.90;99.90;;;;;;7400440;19;20534;-82
2022/12/07 10:21:24;;;;;;;10.63;6.90;;;7.60;99.90;;;;;;7399098;19;20134;-82
2022/12/07 10:24:10;;;;;;;6.67;3.80;;;7.80;99.90;;;;;;7398460;19;20194;-80
2022/12/07 10:26:51;;;;;;;4.80;3.00;;;7.90;99.90;;;;;;7398451;19;20130;-81
2022/12/07 10:29:23;;;;;;;3.00;2.40;;;8.00;99.90;;;;;;7402219;19;20142;-80
2022/12/07 10:32:03;;;;;;;3.50;2.10;;;8.00;99.90;;;;;;7400679;19;20193;-82
2022/12/07 10:34:32;;;;;;;4.63;2.97;;;7.90;99.90;;;;;;7400147;19;20135;-83
2022/12/07 10:37:28;;;;;;;4.73;2.10;;;8.10;99.90;;;;;;7398330;19;20214;-81
2022/12/07 10:39:56;;;;;;;3.43;2.40;;;8.00;99.90;;;;;;7396534;19;20134;-81
2022/12/07 10:42:26;;;;;;;3.10;2.00;;;8.10;99.90;;;;;;7398374;19;20142;-81
2022/12/07 10:45:12;;;;;;;3.67;2.13;;;8.00;99.90;;;;;;7397364;19;20150;-80
2022/12/07 10:48:08;;;;;;;3.20;2.10;;;7.90;99.90;;;;;;7390622;19;20146;-80
2022/12/07 10:51:02;;;;;;;2.47;1.87;;;7.90;99.90;;;;;;7397002;19;20141;-81
2022/12/07 10:53:39;;;;;;;5.73;3.90;;;8.00;99.90;;;;;;7394331;19;20162;-80
2022/12/07 10:56:21;;;;;;;3.80;2.50;;;8.00;99.90;;;;;;7393591;19;20649;-80
2022/12/07 10:58:53;;;;;;;6.93;2.83;;;8.10;99.90;;;;;;7395514;19;20135;-80
2022/12/07 11:01:40;;;;;;;5.20;2.20;;;8.10;99.90;;;;;;7395101;19;20491;-83
2022/12/07 11:04:41;;;;;;;6.47;3.00;;;8.10;99.90;;;;;;7402201;19;20162;-79
2022/12/07 11:07:22;;;;;;;5.43;2.87;;;8.10;99.90;;;;;;7395879;19;20135;-80
2022/12/07 11:10:11;;;;;;;6.90;3.07;;;8.00;99.90;;;;;;7397822;19;20590;-80
2022/12/07 11:13:03;;;;;;;3.97;2.57;;;7.80;99.90;;;;;;7392061;19;20143;-80
2022/12/07 11:15:41;;;;;;;2.83;2.10;;;7.90;99.90;;;;;;7397502;19;20138;-80
2022/12/07 11:18:32;;;;;;;4.40;2.80;;;7.90;99.90;;;;;;7398404;19;20135;-81
2022/12/07 11:21:44;;;;;;;3.03;1.97;;;8.00;99.90;;;;;;7397877;19;20139;-80
2022/12/07 11:24:17;;;;;;;3.20;2.27;;;8.00;99.90;;;;;;7398963;19;20134;-81
2022/12/07 11:27:07;;;;;;;3.30;2.50;;;8.00;99.90;;;;;;7396049;19;20538;-80
2022/12/07 11:29:45;;;;;;;4.40;2.37;;;8.00;99.90;;;;;;7397329;19;20163;-81
2022/12/07 11:32:41;;;;;;;2.17;1.53;;;8.00;99.90;;;;;;7396845;19;20593;-81
2022/12/07 11:35:40;;;;;;;2.47;1.73;;;8.10;99.90;;;;;;7397722;19;20135;-80
2022/12/07 11:38:17;;;;;;;1.97;1.53;;;8.00;99.90;;;;;;7397291;19;20149;-82
2022/12/07 11:40:49;;;;;;;2.00;1.60;;;8.00;99.90;;;;;;7396546;19;20143;-80
2022/12/07 11:43:25;;;;;;;4.23;1.53;;;8.00;99.90;;;;;;7398954;19;20133;-80
2022/12/07 11:46:05;;;;;;;1.90;1.50;;;8.10;99.90;;;;;;7395484;19;20164;-80
2022/12/07 11:48:45;;;;;;;2.10;1.47;;;8.00;99.90;;;;;;7396119;19;20214;-80
2022/12/07 11:51:12;;;;;;;2.87;1.70;;;7.90;99.90;;;;;;7394632;19;20142;-80
2022/12/07 11:53:52;;;;;;;1.93;1.63;;;7.90;99.90;;;;;;7396137;19;20160;-81
2022/12/07 11:56:21;;;;;;;2.77;2.00;;;7.90;99.90;;;;;;7404724;19;20174;-80
2022/12/07 11:58:47;;;;;;;4.27;2.10;;;8.00;99.90;;;;;;7398702;19;20178;-80
2022/12/07 12:01:37;;;;;;;3.67;2.07;;;8.00;99.90;;;;;;7402730;19;20135;-79
2022/12/07 12:04:27;;;;;;;5.33;2.47;;;8.00;99.90;;;;;;7396114;19;20186;-80
2022/12/07 12:06:52;;;;;;;3.93;2.60;;;7.80;99.90;;;;;;7396909;19;20143;-81
2022/12/07 12:09:44;;;;;;;6.37;4.20;;;7.80;99.90;;;;;;7395516;19;20174;-82
2022/12/07 12:12:40;;;;;;;4.07;2.60;;;7.70;99.90;;;;;;7398587;19;20467;-81
2022/12/07 12:15:23;;;;;;;5.17;3.50;;;7.70;99.90;;;;;;7397459;19;20150;-81
2022/12/07 12:18:08;;;;;;;5.40;3.63;;;7.70;99.90;;;;;;7396896;19;20604;-82
2022/12/07 12:20:51;;;;;;;5.40;3.23;;;7.60;99.90;;;;;;7398881;19;20937;-82
2022/12/07 12:23:41;;;;;;;4.50;3.43;;;7.70;99.90;;;;;;7396527;19;20151;-82
2022/12/07 12:26:15;;;;;;;5.97;3.37;;;7.80;99.90;;;;;;7396478;19;20165;-82
2022/12/07 12:29:04;;;;;;;6.13;3.57;;;7.80;99.90;;;;;;7396220;19;20142;-81
2022/12/07 12:31:36;;;;;;;4.70;3.37;;;7.90;99.90;;;;;;7395845;19;20575;-82
2022/12/07 12:34:24;;;;;;;4.70;3.23;;;7.90;99.90;;;;;;7394279;19;20246;-83
2022/12/07 12:36:50;;;;;;;15.57;10.47;;;7.70;99.90;;;;;;7396706;19;20240;-82
2022/12/07 12:39:18;;;;;;;4.87;3.60;;;7.70;99.90;;;;;;7403300;19;20139;-81
2022/12/07 12:44:18;;;;;;;3.67;3.10;;;7.70;99.90;;;;;;7395887;19;20174;-81
2022/12/07 12:47:24;;;;;;;3.83;3.00;;;7.70;99.90;;;;;;7394362;19;20138;-82
2022/12/07 12:50:16;;;;;;;4.00;2.93;;;7.80;99.90;;;;;;7395808;19;20165;-82
2022/12/07 12:52:41;;;;;;;3.83;2.70;;;7.80;99.90;;;;;;7394196;19;20168;-82
2022/12/07 12:55:10;;;;;;;3.53;2.90;;;7.80;99.90;;;;;;7394191;19;20547;-82
2022/12/07 12:57:38;;;;;;;3.53;2.67;;;7.80;99.90;;;;;;7393966;19;20234;-80
2022/12/07 13:00:19;;;;;;;5.47;3.10;;;7.80;99.90;;;;;;7394433;19;20138;-81
2022/12/07 13:02:53;;;;;;;4.33;3.23;;;7.70;99.90;;;;;;7401686;19;20167;-83
2022/12/07 13:05:22;;;;;;;4.47;2.97;;;7.80;99.90;;;;;;7403599;19;20138;-84
2022/12/07 13:07:56;;;;;;;3.73;3.07;;;7.50;99.90;;;;;;7404611;19;20529;-82
2022/12/07 13:10:30;;;;;;;5.47;3.60;;;7.50;99.90;;;;;;7403316;19;20159;-83
2022/12/07 13:13:00;;;;;;;4.30;3.07;;;7.70;99.90;;;;;;7402251;19;20138;-83
2022/12/07 13:15:50;;;;;;;4.40;2.70;;;7.60;99.90;;;;;;7402385;19;20134;-80
2022/12/07 13:18:28;;;;;;;5.70;3.43;;;7.80;99.90;;;;;;7401992;19;20154;-82
2022/12/07 13:21:07;;;;;;;3.73;2.63;;;7.70;99.90;;;;;;7401102;19;20145;-84
2022/12/07 13:23:51;;;;;;;5.13;2.90;;;7.90;99.90;;;;;;7401341;19;20141;-83
2022/12/07 13:26:29;;;;;;;5.23;3.03;;;7.80;99.90;;;;;;7402867;19;20131;-83
2022/12/07 13:29:16;;;;;;;6.63;3.10;;;7.70;99.90;;;;;;7401900;19;20218;-83